createdAt,value
2019-05-03T00:01:54.917Z,100.00
2019-05-03T00:04:22.879Z,100.00
2019-05-03T00:06:52.085Z,100.00
2019-05-03T00:09:20.307Z,99.71
2019-05-03T00:11:48.197Z,99.49
2019-05-03T00:14:15.477Z,98.55
2019-05-03T00:16:47.890Z,98.59
2019-05-03T00:19:15.210Z,98.41
2019-05-03T00:21:42.626Z,98.62
2019-05-03T00:24:19.722Z,98.63
2019-05-03T00:26:47.602Z,98.49
2019-05-03T00:29:14.869Z,98.69
2019-05-03T00:31:42.351Z,98.91
2019-05-03T00:34:12.478Z,99.04
2019-05-03T00:36:41.956Z,98.96
2019-05-03T00:39:17.038Z,98.69
2019-05-03T00:41:43.767Z,98.75
2019-05-03T00:44:11.566Z,98.95
2019-05-03T00:46:39.160Z,98.64
2019-05-03T00:49:06.879Z,98.62
2019-05-03T00:51:34.614Z,98.81
2019-05-03T00:54:02.137Z,98.72
2019-05-03T00:56:29.760Z,98.67
2019-05-03T00:58:58.498Z,99.06
2019-05-03T01:01:26.138Z,100.00
2019-05-03T01:03:53.380Z,100.00
2019-05-03T01:06:22.362Z,100.00
2019-05-03T01:08:52.268Z,100.00
2019-05-03T01:11:19.491Z,100.00
2019-05-03T01:13:46.853Z,100.00
2019-05-03T01:16:18.829Z,100.00
2019-05-03T01:18:46.172Z,100.00
2019-05-03T01:21:13.513Z,100.00
2019-05-03T01:23:41.945Z,100.00
2019-05-03T01:26:11.751Z,100.00
2019-05-03T01:28:39.498Z,100.00
2019-05-03T01:31:06.803Z,100.00
2019-05-03T01:33:34.566Z,100.00
2019-05-03T01:36:02.741Z,100.00
2019-05-03T01:38:31.893Z,100.00
2019-05-03T01:41:01.573Z,100.00
2019-05-03T01:43:29.046Z,100.00
2019-05-03T01:45:57.036Z,100.00
2019-05-03T01:48:37.897Z,100.00
2019-05-03T01:51:06.603Z,100.00
2019-05-03T01:53:35.044Z,100.00
2019-05-03T01:56:03.654Z,100.00
2019-05-03T01:58:32.302Z,100.00
2019-05-03T02:01:07.694Z,100.00
2019-05-03T02:03:39.400Z,100.00
2019-05-03T02:06:06.687Z,100.00
2019-05-03T02:08:34.189Z,100.00
2019-05-03T02:11:02.224Z,100.00
2019-05-03T02:13:29.762Z,100.00
2019-05-03T02:15:56.964Z,100.00
2019-05-03T02:18:24.749Z,100.00
2019-05-03T02:20:52.556Z,100.00
2019-05-03T02:23:19.980Z,100.00
2019-05-03T02:25:56.175Z,100.00
2019-05-03T02:28:16.809Z,100.00
2019-05-03T02:30:44.478Z,100.00
2019-05-03T02:33:13.511Z,100.00
2019-05-03T02:35:43.045Z,100.00
2019-05-03T02:38:13.012Z,100.00
2019-05-03T02:40:42.612Z,100.00
2019-05-03T02:43:16.364Z,100.00
2019-05-03T02:46:05.865Z,100.00
2019-05-03T02:48:40.593Z,100.00
2019-05-03T02:51:07.881Z,100.00
2019-05-03T02:53:36.170Z,100.00
2019-05-03T02:56:14.972Z,100.00
2019-05-03T02:58:32.312Z,100.00
2019-05-03T03:01:03.023Z,100.00
2019-05-03T03:03:31.648Z,100.00
2019-05-03T03:06:00.154Z,100.00
2019-05-03T03:08:29.009Z,100.00
2019-05-03T03:11:01.737Z,100.00
2019-05-03T03:13:30.122Z,100.00
2019-05-03T03:16:00.371Z,100.00
2019-05-03T03:18:29.925Z,100.00
2019-05-03T03:20:59.065Z,100.00
2019-05-03T03:23:27.270Z,100.00
2019-05-03T03:25:56.074Z,100.00
2019-05-03T03:28:25.269Z,100.00
2019-05-03T03:31:20.574Z,100.00
2019-05-03T03:33:47.963Z,100.00
2019-05-03T03:36:43.098Z,100.00
2019-05-03T03:38:49.622Z,100.00
2019-05-03T03:41:17.623Z,100.00
2019-05-03T03:43:46.314Z,100.00
2019-05-03T03:46:15.874Z,100.00
2019-05-03T03:48:46.068Z,100.00
2019-05-03T03:51:15.529Z,100.00
2019-05-03T03:53:46.500Z,100.00
2019-05-03T03:56:15.999Z,100.00
2019-05-03T03:58:46.394Z,100.00
2019-05-03T04:01:15.670Z,100.00
2019-05-03T04:03:42.069Z,100.00
2019-05-03T04:06:09.706Z,100.00
2019-05-03T04:08:36.526Z,100.00
2019-05-03T04:11:06.066Z,100.00
2019-05-03T04:13:35.994Z,100.00
2019-05-03T04:16:20.316Z,100.00
2019-05-03T04:18:47.826Z,100.00
2019-05-03T04:21:16.198Z,100.00
2019-05-03T04:23:45.817Z,100.00
2019-05-03T04:26:16.330Z,100.00
2019-05-03T04:28:45.345Z,100.00
2019-05-03T04:31:15.260Z,100.00
2019-05-03T04:33:44.844Z,100.00
2019-05-03T04:36:12.486Z,100.00
2019-05-03T04:38:40.219Z,100.00
2019-05-03T04:41:06.924Z,100.00
2019-05-03T04:43:35.625Z,100.00
2019-05-03T04:46:06.682Z,100.00
2019-05-03T04:48:35.769Z,100.00
2019-05-03T04:51:05.956Z,100.00
2019-05-03T04:53:35.790Z,100.00
2019-05-03T04:56:05.521Z,100.00
2019-05-03T04:58:32.296Z,100.00
2019-05-03T05:00:59.551Z,100.00
2019-05-03T05:03:26.975Z,100.00
2019-05-03T05:05:55.536Z,100.00
2019-05-03T05:08:25.261Z,100.00
2019-05-03T05:10:52.426Z,100.00
2019-05-03T05:13:19.642Z,100.00
2019-05-03T05:15:46.728Z,100.00
2019-05-03T05:18:18.154Z,100.00
2019-05-03T05:20:55.629Z,100.00
2019-05-03T05:23:25.122Z,100.00
2019-05-03T05:25:55.019Z,100.00
2019-05-03T05:28:26.801Z,100.00
2019-05-03T05:30:54.801Z,100.00
2019-05-03T05:33:22.331Z,100.00
2019-05-03T05:35:50.057Z,100.00
2019-05-03T05:38:17.202Z,100.00
2019-05-03T05:40:45.132Z,100.00
2019-05-03T05:43:12.524Z,100.00
2019-05-03T05:45:39.438Z,100.00
2019-05-03T05:48:07.967Z,100.00
2019-05-03T05:50:37.438Z,100.00
2019-05-03T05:53:05.053Z,100.00
2019-05-03T05:55:34.514Z,100.00
2019-05-03T05:58:08.127Z,100.00
2019-05-03T06:00:39.456Z,100.00
2019-05-03T06:03:06.813Z,100.00
2019-05-03T06:05:35.585Z,100.00
2019-05-03T06:08:19.639Z,100.00
2019-05-03T06:10:48.731Z,100.00
2019-05-03T06:13:23.226Z,100.00
2019-05-03T06:15:51.665Z,100.00
2019-05-03T06:18:20.157Z,100.00
2019-05-03T06:20:54.613Z,100.00
2019-05-03T06:23:24.801Z,100.00
2019-05-03T06:25:51.846Z,100.00
2019-05-03T06:28:21.275Z,100.00
2019-05-03T06:30:54.473Z,100.00
2019-05-03T06:33:21.372Z,100.00
2019-05-03T06:35:48.545Z,100.00
2019-05-03T06:38:15.326Z,100.00
2019-05-03T06:40:42.074Z,100.00
2019-05-03T06:43:12.922Z,100.00
2019-05-03T06:45:41.173Z,100.00
2019-05-03T06:48:07.649Z,98.80
2019-05-03T06:50:34.905Z,97.56
2019-05-03T06:53:05.418Z,96.81
2019-05-03T06:55:30.336Z,96.67
2019-05-03T06:57:57.280Z,96.46
2019-05-03T07:00:37.675Z,97.01
2019-05-03T07:03:12.081Z,97.11
2019-05-03T07:05:49.249Z,97.52
2019-05-03T07:08:35.059Z,97.55
2019-05-03T07:11:05.190Z,97.83
2019-05-03T07:13:34.429Z,97.79
2019-05-03T07:16:01.053Z,98.01
2019-05-03T07:18:28.160Z,96.94
2019-05-03T07:20:57.169Z,96.68
2019-05-03T07:23:24.884Z,96.00
2019-05-03T07:25:52.707Z,95.59
2019-05-03T07:28:19.520Z,95.59
2019-05-03T07:30:46.597Z,95.79
2019-05-03T07:33:15.182Z,95.99
2019-05-03T07:35:44.441Z,96.36
2019-05-03T07:38:11.130Z,95.57
2019-05-03T07:40:38.820Z,95.54
2019-05-03T07:43:05.981Z,94.35
2019-05-03T07:45:32.723Z,92.98
2019-05-03T07:48:00.059Z,91.31
2019-05-03T07:50:27.084Z,89.90
2019-05-03T07:52:55.624Z,89.59
2019-05-03T07:55:24.977Z,89.28
2019-05-03T07:57:56.841Z,87.90
2019-05-03T08:00:25.903Z,86.99
2019-05-03T08:02:54.889Z,85.27
2019-05-03T08:05:22.120Z,85.03
2019-05-03T08:07:49.082Z,86.14
2019-05-03T08:10:16.584Z,85.82
2019-05-03T08:12:45.186Z,85.27
2019-05-03T08:15:12.297Z,85.09
2019-05-03T08:17:39.629Z,84.82
2019-05-03T08:20:07.775Z,83.61
2019-05-03T08:22:34.620Z,83.12
2019-05-03T08:25:01.423Z,83.54
2019-05-03T08:27:28.840Z,84.23
2019-05-03T08:29:56.294Z,82.97
2019-05-03T08:32:27.671Z,82.95
2019-05-03T08:34:59.576Z,82.64
2019-05-03T08:37:28.918Z,81.55
2019-05-03T08:39:56.418Z,80.43
2019-05-03T08:42:25.505Z,80.01
2019-05-03T08:44:52.285Z,78.32
2019-05-03T08:47:19.815Z,77.71
2019-05-03T08:49:46.568Z,77.42
2019-05-03T08:52:15.727Z,77.53
2019-05-03T08:54:44.747Z,75.20
2019-05-03T08:57:12.848Z,75.58
2019-05-03T08:59:41.024Z,73.81
2019-05-03T09:02:17.785Z,74.11
2019-05-03T09:04:38.625Z,74.71
2019-05-03T09:07:06.244Z,74.31
2019-05-03T09:09:34.928Z,74.00
2019-05-03T09:12:02.083Z,71.85
2019-05-03T09:14:41.444Z,71.70
2019-05-03T09:16:58.739Z,72.67
2019-05-03T09:19:25.846Z,71.33
2019-05-03T09:21:52.544Z,72.26
2019-05-03T09:24:19.299Z,71.89
2019-05-03T09:26:46.527Z,72.72
2019-05-03T09:29:14.787Z,70.99
2019-05-03T09:31:41.666Z,70.01
2019-05-03T09:34:09.193Z,71.16
2019-05-03T09:36:36.657Z,71.82
2019-05-03T09:39:05.888Z,70.96
2019-05-03T09:41:34.614Z,70.18
2019-05-03T09:44:01.493Z,69.26
2019-05-03T09:46:28.393Z,69.15
2019-05-03T09:49:09.505Z,66.49
2019-05-03T09:51:25.531Z,64.20
2019-05-03T09:54:10.720Z,63.01
2019-05-03T09:56:58.662Z,61.67
2019-05-03T09:59:25.952Z,60.81
2019-05-03T10:01:54.734Z,59.79
2019-05-03T10:04:21.705Z,59.55
2019-05-03T10:06:48.739Z,60.70
2019-05-03T10:09:15.692Z,60.73
2019-05-03T10:11:45.608Z,61.46
2019-05-03T10:14:11.528Z,60.00
2019-05-03T10:16:40.464Z,60.05
2019-05-03T10:19:07.156Z,60.66
2019-05-03T10:21:36.050Z,61.35
2019-05-03T10:24:03.286Z,60.53
2019-05-03T10:26:29.927Z,61.31
2019-05-03T10:28:56.887Z,60.81
2019-05-03T10:31:25.384Z,60.09
2019-05-03T10:34:02.805Z,60.49
2019-05-03T10:36:29.494Z,59.86
2019-05-03T10:38:56.717Z,57.98
2019-05-03T10:41:25.108Z,58.89
2019-05-03T10:43:52.252Z,58.63
2019-05-03T10:46:18.996Z,58.25
2019-05-03T10:48:45.641Z,57.57
2019-05-03T10:51:15.389Z,58.16
2019-05-03T10:53:45.455Z,57.51
2019-05-03T10:56:22.631Z,57.28
2019-05-03T10:58:48.932Z,57.92
2019-05-03T11:01:18.086Z,56.67
2019-05-03T11:03:45.204Z,55.94
2019-05-03T11:06:12.276Z,56.76
2019-05-03T11:08:38.936Z,56.42
2019-05-03T11:11:05.970Z,56.93
2019-05-03T11:13:34.857Z,56.70
2019-05-03T11:16:01.670Z,56.77
2019-05-03T11:18:28.467Z,55.81
2019-05-03T11:20:55.521Z,55.47
2019-05-03T11:23:22.269Z,56.35
2019-05-03T11:25:48.915Z,57.21
2019-05-03T11:28:17.825Z,57.57
2019-05-03T11:30:53.549Z,56.66
2019-05-03T11:33:15.343Z,54.04
2019-05-03T11:35:44.828Z,54.38
2019-05-03T11:38:22.427Z,53.69
2019-05-03T11:40:49.958Z,52.47
2019-05-03T11:43:18.482Z,51.71
2019-05-03T11:45:45.299Z,52.25
2019-05-03T11:48:12.109Z,54.04
2019-05-03T11:50:39.123Z,55.16
2019-05-03T11:53:06.647Z,54.42
2019-05-03T11:55:35.229Z,55.66
2019-05-03T11:58:05.624Z,53.90
2019-05-03T12:00:34.329Z,53.62
2019-05-03T12:03:05.461Z,52.83
2019-05-03T12:05:33.401Z,53.02
2019-05-03T12:08:00.998Z,53.51
2019-05-03T12:10:47.897Z,53.03
2019-05-03T12:12:58.525Z,52.64
2019-05-03T12:15:25.217Z,53.52
2019-05-03T12:17:59.236Z,52.86
2019-05-03T12:20:28.464Z,51.06
2019-05-03T12:22:54.206Z,50.67
2019-05-03T12:25:22.203Z,50.91
2019-05-03T12:27:50.380Z,51.86
2019-05-03T12:30:17.352Z,51.69
2019-05-03T12:32:43.980Z,51.72
2019-05-03T12:35:11.123Z,51.73
2019-05-03T12:37:37.933Z,53.78
2019-05-03T12:40:05.676Z,52.73
2019-05-03T12:42:32.462Z,51.43
2019-05-03T12:44:59.654Z,50.73
2019-05-03T12:47:26.435Z,49.39
2019-05-03T12:49:53.155Z,50.18
2019-05-03T12:52:20.861Z,51.15
2019-05-03T12:54:47.844Z,50.28
2019-05-03T12:57:15.477Z,50.53
2019-05-03T12:59:44.975Z,48.79
2019-05-03T13:02:15.518Z,48.76
2019-05-03T13:04:44.664Z,48.78
2019-05-03T13:07:16.576Z,47.22
2019-05-03T13:09:45.292Z,47.39
2019-05-03T13:12:14.725Z,47.32
2019-05-03T13:14:42.351Z,47.57
2019-05-03T13:17:11.293Z,46.91
2019-05-03T13:19:40.645Z,47.49
2019-05-03T13:22:07.929Z,46.95
2019-05-03T13:24:34.888Z,47.22
2019-05-03T13:27:01.552Z,48.28
2019-05-03T13:29:30.176Z,48.46
2019-05-03T13:32:01.894Z,47.07
2019-05-03T13:34:25.763Z,46.16
2019-05-03T13:36:54.839Z,47.53
2019-05-03T13:39:21.714Z,47.37
2019-05-03T13:41:48.378Z,46.92
2019-05-03T13:44:15.805Z,46.86
2019-05-03T13:46:44.570Z,47.50
2019-05-03T13:49:11.444Z,47.15
2019-05-03T13:51:38.196Z,47.35
2019-05-03T13:54:05.640Z,48.37
2019-05-03T13:56:32.359Z,49.37
2019-05-03T13:58:59.130Z,47.74
2019-05-03T14:01:25.866Z,47.15
2019-05-03T14:03:54.574Z,45.18
2019-05-03T14:06:21.424Z,45.20
2019-05-03T14:08:48.142Z,45.30
2019-05-03T14:11:15.739Z,46.25
2019-05-03T14:13:44.542Z,47.47
2019-05-03T14:16:12.064Z,46.90
2019-05-03T14:18:41.301Z,46.13
2019-05-03T14:21:14.952Z,45.43
2019-05-03T14:23:59.549Z,45.33
2019-05-03T14:26:26.702Z,45.03
2019-05-03T14:28:54.812Z,45.26
2019-05-03T14:31:21.947Z,45.25
2019-05-03T14:33:49.403Z,44.90
2019-05-03T14:36:16.188Z,44.03
2019-05-03T14:38:46.916Z,44.59
2019-05-03T14:41:14.935Z,44.95
2019-05-03T14:43:40.996Z,43.85
2019-05-03T14:46:07.938Z,43.42
2019-05-03T14:48:35.146Z,43.07
2019-05-03T14:51:02.491Z,43.29
2019-05-03T14:53:29.330Z,43.96
2019-05-03T14:55:58.005Z,43.33
2019-05-03T14:58:45.682Z,43.89
2019-05-03T15:01:29.075Z,43.48
2019-05-03T15:03:56.159Z,43.22
2019-05-03T15:06:24.934Z,43.61
2019-05-03T15:08:51.654Z,43.05
2019-05-03T15:11:18.432Z,42.56
2019-05-03T15:13:45.623Z,43.86
2019-05-03T15:16:14.322Z,43.87
2019-05-03T15:18:41.029Z,44.02
2019-05-03T15:21:07.917Z,44.10
2019-05-03T15:23:34.895Z,43.67
2019-05-03T15:26:02.015Z,43.57
2019-05-03T15:28:29.401Z,44.67
2019-05-03T15:30:56.115Z,45.19
2019-05-03T15:33:22.843Z,45.00
2019-05-03T15:35:49.951Z,44.77
2019-05-03T15:38:17.047Z,44.83
2019-05-03T15:40:43.840Z,44.37
2019-05-03T15:43:15.015Z,44.21
2019-05-03T15:45:50.272Z,44.50
2019-05-03T15:48:18.871Z,44.78
2019-05-03T15:50:45.626Z,44.92
2019-05-03T15:53:12.643Z,45.46
2019-05-03T15:55:39.437Z,44.70
2019-05-03T15:58:06.173Z,43.99
2019-05-03T16:00:33.583Z,44.38
2019-05-03T16:03:08.049Z,44.08
2019-05-03T16:05:30.314Z,44.54
2019-05-03T16:07:57.329Z,43.79
2019-05-03T16:10:24.955Z,44.58
2019-05-03T16:12:51.981Z,44.81
2019-05-03T16:15:19.107Z,45.15
2019-05-03T16:17:45.813Z,44.61
2019-05-03T16:20:14.405Z,45.30
2019-05-03T16:22:41.722Z,45.52
2019-05-03T16:25:09.650Z,45.19
2019-05-03T16:27:38.145Z,45.23
2019-05-03T16:30:07.925Z,45.30
2019-05-03T16:32:36.480Z,45.96
2019-05-03T16:35:05.080Z,45.20
2019-05-03T16:37:31.845Z,44.77
2019-05-03T16:39:58.746Z,44.36
2019-05-03T16:42:26.021Z,45.50
2019-05-03T16:44:54.874Z,45.69
2019-05-03T16:47:21.333Z,45.78
2019-05-03T16:49:48.277Z,46.38
2019-05-03T16:52:17.490Z,47.06
2019-05-03T16:54:45.353Z,47.43
2019-05-03T16:57:12.460Z,46.79
2019-05-03T16:59:39.549Z,46.87
2019-05-03T17:02:06.663Z,47.31
2019-05-03T17:04:38.600Z,47.70
2019-05-03T17:07:22.260Z,47.91
2019-05-03T17:09:59.943Z,47.95
2019-05-03T17:12:28.408Z,48.28
2019-05-03T17:14:57.058Z,48.61
2019-05-03T17:17:25.220Z,49.22
2019-05-03T17:19:52.453Z,49.01
2019-05-03T17:22:19.398Z,48.92
2019-05-03T17:24:46.708Z,49.29
2019-05-03T17:27:13.960Z,49.14
2019-05-03T17:29:40.602Z,49.79
2019-05-03T17:32:07.225Z,49.99
2019-05-03T17:34:34.733Z,49.95
2019-05-03T17:37:02.289Z,49.20
2019-05-03T17:39:47.472Z,49.11
2019-05-03T17:42:16.392Z,48.87
2019-05-03T17:44:47.112Z,49.13
2019-05-03T17:47:14.896Z,48.69
2019-05-03T17:49:42.637Z,48.33
2019-05-03T17:52:11.521Z,47.63
2019-05-03T17:54:44.845Z,48.41
2019-05-03T17:57:15.102Z,48.42
2019-05-03T17:59:44.469Z,48.89
2019-05-03T18:02:22.401Z,48.84
2019-05-03T18:05:07.289Z,48.07
2019-05-03T18:07:36.735Z,47.83
2019-05-03T18:10:05.606Z,47.94
2019-05-03T18:12:32.341Z,47.79
2019-05-03T18:14:58.922Z,48.07
2019-05-03T18:17:26.508Z,48.57
2019-05-03T18:19:55.206Z,48.54
2019-05-03T18:22:21.870Z,48.78
2019-05-03T18:24:48.999Z,48.82
2019-05-03T18:27:15.713Z,48.78
2019-05-03T18:29:42.421Z,48.71
2019-05-03T18:32:09.457Z,49.40
2019-05-03T18:34:36.781Z,49.68
2019-05-03T18:37:04.766Z,49.80
2019-05-03T18:39:34.561Z,50.19
2019-05-03T18:42:02.593Z,50.31
2019-05-03T18:44:34.611Z,50.52
2019-05-03T18:47:09.341Z,50.89
2019-05-03T18:49:36.148Z,51.25
2019-05-03T18:52:04.419Z,51.62
2019-05-03T18:54:32.258Z,51.53
2019-05-03T18:56:58.878Z,51.92
2019-05-03T18:59:25.529Z,52.04
2019-05-03T19:01:52.250Z,52.28
2019-05-03T19:04:31.507Z,52.59
2019-05-03T19:07:02.032Z,52.89
2019-05-03T19:09:25.075Z,53.15
2019-05-03T19:11:56.861Z,53.60
2019-05-03T19:14:25.853Z,53.75
2019-05-03T19:17:05.125Z,54.28
2019-05-03T19:19:35.250Z,54.56
2019-05-03T19:22:02.117Z,54.90
2019-05-03T19:24:29.174Z,54.76
2019-05-03T19:26:55.802Z,54.96
2019-05-03T19:29:22.731Z,55.17
2019-05-03T19:31:50.100Z,55.42
2019-05-03T19:34:17.543Z,55.59
2019-05-03T19:36:45.634Z,55.95
2019-05-03T19:39:14.295Z,56.02
2019-05-03T19:41:41.910Z,56.33
2019-05-03T19:44:08.941Z,56.51
2019-05-03T19:46:35.786Z,56.67
2019-05-03T19:49:02.480Z,56.82
2019-05-03T19:51:29.818Z,56.94
2019-05-03T19:53:56.430Z,57.24
2019-05-03T19:56:25.348Z,57.55
2019-05-03T19:58:55.206Z,57.94
2019-05-03T20:01:25.005Z,58.84
2019-05-03T20:04:10.340Z,58.97
2019-05-03T20:06:54.992Z,58.99
2019-05-03T20:09:24.505Z,59.03
2019-05-03T20:11:51.957Z,59.27
2019-05-03T20:14:19.350Z,60.11
2019-05-03T20:16:46.476Z,60.00
2019-05-03T20:19:19.009Z,60.60
2019-05-03T20:21:41.881Z,61.22
2019-05-03T20:24:08.609Z,61.56
2019-05-03T20:26:35.669Z,62.62
2019-05-03T20:29:02.642Z,63.23
2019-05-03T20:31:29.340Z,64.12
2019-05-03T20:33:56.361Z,64.96
2019-05-03T20:36:23.289Z,64.94
2019-05-03T20:38:50.010Z,65.49
2019-05-03T20:41:17.154Z,65.77
2019-05-03T20:43:51.389Z,65.97
2019-05-03T20:46:22.958Z,66.24
2019-05-03T20:48:51.583Z,66.39
2019-05-03T20:51:18.222Z,66.46
2019-05-03T20:53:45.036Z,66.70
2019-05-03T20:56:12.229Z,66.91
2019-05-03T20:58:38.846Z,66.71
2019-05-03T21:01:05.822Z,66.90
2019-05-03T21:03:32.742Z,66.95
2019-05-03T21:06:02.212Z,66.99
2019-05-03T21:08:28.448Z,67.07
2019-05-03T21:10:55.312Z,67.29
2019-05-03T21:13:22.064Z,67.79
2019-05-03T21:16:06.979Z,68.49
2019-05-03T21:18:38.098Z,69.13
2019-05-03T21:21:25.182Z,69.83
2019-05-03T21:24:11.749Z,70.13
2019-05-03T21:26:38.475Z,70.93
2019-05-03T21:29:05.190Z,71.05
2019-05-03T21:31:32.369Z,71.11
2019-05-03T21:33:59.014Z,71.40
2019-05-03T21:36:27.076Z,71.73
2019-05-03T21:38:54.827Z,71.89
2019-05-03T21:41:21.820Z,72.07
2019-05-03T21:43:48.683Z,72.16
2019-05-03T21:46:17.383Z,72.48
2019-05-03T21:48:48.499Z,72.69
2019-05-03T21:51:15.583Z,72.42
2019-05-03T21:53:42.585Z,72.45
2019-05-03T21:56:09.859Z,72.42
2019-05-03T21:58:37.328Z,72.49
2019-05-03T22:01:06.706Z,72.55
2019-05-03T22:03:35.493Z,72.70
2019-05-03T22:06:02.368Z,72.65
2019-05-03T22:08:30.494Z,72.61
2019-05-03T22:10:57.730Z,72.68
2019-05-03T22:13:24.669Z,72.81
2019-05-03T22:15:54.190Z,72.96
2019-05-03T22:18:28.150Z,73.06
2019-05-03T22:20:59.264Z,73.23
2019-05-03T22:23:30.750Z,73.08
2019-05-03T22:25:58.061Z,73.19
2019-05-03T22:28:25.331Z,73.56
2019-05-03T22:30:52.011Z,73.70
2019-05-03T22:33:19.436Z,73.69
2019-05-03T22:35:47.089Z,73.84
2019-05-03T22:38:13.769Z,74.42
2019-05-03T22:40:41.309Z,74.48
2019-05-03T22:43:08.755Z,74.49
2019-05-03T22:45:37.359Z,74.45
2019-05-03T22:48:05.303Z,74.60
2019-05-03T22:50:34.451Z,74.51
2019-05-03T22:53:02.286Z,74.74
2019-05-03T22:55:28.870Z,74.65
2019-05-03T22:57:56.647Z,74.63
2019-05-03T23:00:25.193Z,74.77
2019-05-03T23:02:52.031Z,74.59
2019-05-03T23:05:20.039Z,74.43
2019-05-03T23:07:47.610Z,74.48
2019-05-03T23:10:17.264Z,74.41
2019-05-03T23:12:45.225Z,73.88
2019-05-03T23:15:14.985Z,74.14
2019-05-03T23:17:41.605Z,74.23
2019-05-03T23:20:28.724Z,74.28
2019-05-03T23:22:56.035Z,74.30
2019-05-03T23:25:24.992Z,74.12
2019-05-03T23:27:52.675Z,73.83
2019-05-03T23:30:20.594Z,73.95
2019-05-03T23:32:47.802Z,73.97
2019-05-03T23:35:15.148Z,73.92
2019-05-03T23:37:42.205Z,74.02
2019-05-03T23:40:09.417Z,74.01
2019-05-03T23:42:36.909Z,74.06
2019-05-03T23:45:05.435Z,74.09
2019-05-03T23:47:34.506Z,74.09
2019-05-03T23:50:02.219Z,74.12
2019-05-03T23:52:31.361Z,74.16
2019-05-03T23:55:08.747Z,74.19
2019-05-03T23:57:35.755Z,74.18
